NAPEX1 KBOS-KOWD
Flight info
| Callsign | NAPEX1 |
|---|---|
| Flight time | 0h 12m |
| Altitude | VFR/015 |
| Route | |
| Aircraft | C152/L-VGD/C |
Departure
| Time | 2026-05-04 22:27 |
|---|---|
| Airport | Boston Logan International Airport (KBOS) |
Arrival
| Time | 2026-05-04 22:39 |
|---|---|
| Airport | Norwood Memorial Airport (KOWD) |
| Time | Latitude | Longitude | Altitude | Speed | Heading |
|---|---|---|---|---|---|
| 2026-05-04 22:17 | 42.37366 | -71.02002 | 20 ft | 0 kts | 133° |
| 2026-05-04 22:21 | 42.37366 | -71.02001 | 20 ft | 1 kts | 133° |
| 2026-05-04 22:21 | 42.37363 | -71.01934 | 21 ft | 13 kts | 102° |
| 2026-05-04 22:21 | 42.37301 | -71.01828 | 23 ft | 17 kts | 134° |
| 2026-05-04 22:21 | 42.37206 | -71.01699 | 23 ft | 22 kts | 137° |
| 2026-05-04 22:22 | 42.37089 | -71.01539 | 23 ft | 26 kts | 136° |
| 2026-05-04 22:22 | 42.36957 | -71.01357 | 20 ft | 18 kts | 126° |
| 2026-05-04 22:22 | 42.36927 | -71.01228 | 19 ft | 15 kts | 77° |
| 2026-05-04 22:22 | 42.36985 | -71.01120 | 19 ft | 15 kts | 33° |
| 2026-05-04 22:23 | 42.37083 | -71.01049 | 16 ft | 17 kts | 26° |
| 2026-05-04 22:23 | 42.37189 | -71.00978 | 17 ft | 17 kts | 26° |
| 2026-05-04 22:23 | 42.37295 | -71.00911 | 16 ft | 17 kts | 21° |
| 2026-05-04 22:23 | 42.37407 | -71.00853 | 16 ft | 17 kts | 20° |
| 2026-05-04 22:24 | 42.37516 | -71.00801 | 18 ft | 16 kts | 20° |
| 2026-05-04 22:24 | 42.37621 | -71.00749 | 20 ft | 15 kts | 19° |
| 2026-05-04 22:24 | 42.37717 | -71.00704 | 23 ft | 14 kts | 20° |
| 2026-05-04 22:24 | 42.37773 | -71.00625 | 23 ft | 12 kts | 100° |
| 2026-05-04 22:25 | 42.37726 | -71.00527 | 21 ft | 13 kts | 170° |
| 2026-05-04 22:25 | 42.37661 | -71.00539 | 21 ft | 7 kts | 197° |
| 2026-05-04 22:25 | 42.37552 | -71.00590 | 26 ft | 38 kts | 205° |
| 2026-05-04 22:25 | 42.37234 | -71.00714 | 120 ft | 54 kts | 202° |
| 2026-05-04 22:26 | 42.36874 | -71.00908 | 249 ft | 55 kts | 205° |
| 2026-05-04 22:26 | 42.36536 | -71.01094 | 451 ft | 51 kts | 207° |
| 2026-05-04 22:26 | 42.36215 | -71.01270 | 686 ft | 44 kts | 207° |
| 2026-05-04 22:26 | 42.35912 | -71.01395 | 872 ft | 49 kts | 208° |
| 2026-05-04 22:27 | 42.35635 | -71.01629 | 987 ft | 54 kts | 230° |
| 2026-05-04 22:27 | 42.35331 | -71.02019 | 1130 ft | 58 kts | 222° |
| 2026-05-04 22:27 | 42.35028 | -71.02374 | 1291 ft | 60 kts | 225° |
| 2026-05-04 22:27 | 42.34719 | -71.02771 | 1431 ft | 61 kts | 226° |
| 2026-05-04 22:28 | 42.34434 | -71.03141 | 1638 ft | 54 kts | 223° |
| 2026-05-04 22:28 | 42.34146 | -71.03463 | 1774 ft | 56 kts | 225° |
| 2026-05-04 22:28 | 42.33820 | -71.03816 | 1859 ft | 63 kts | 225° |
| 2026-05-04 22:28 | 42.33468 | -71.04181 | 1963 ft | 64 kts | 223° |
| 2026-05-04 22:29 | 42.33139 | -71.04560 | 2098 ft | 63 kts | 225° |
| 2026-05-04 22:29 | 42.32833 | -71.04999 | 2237 ft | 63 kts | 227° |
| 2026-05-04 22:29 | 42.32517 | -71.05392 | 2431 ft | 52 kts | 226° |
| 2026-05-04 22:29 | 42.32242 | -71.05691 | 2591 ft | 56 kts | 227° |
| 2026-05-04 22:30 | 42.31872 | -71.05972 | 2630 ft | 73 kts | 192° |
| 2026-05-04 22:30 | 42.31321 | -71.05829 | 2599 ft | 83 kts | 185° |
| 2026-05-04 22:30 | 42.30739 | -71.05722 | 2574 ft | 87 kts | 185° |
| 2026-05-04 22:30 | 42.30204 | -71.05634 | 2734 ft | 69 kts | 202° |
| 2026-05-04 22:31 | 42.29755 | -71.05917 | 2713 ft | 75 kts | 216° |
| 2026-05-04 22:31 | 42.29316 | -71.06307 | 2721 ft | 74 kts | 220° |
| 2026-05-04 22:31 | 42.28907 | -71.06716 | 2743 ft | 75 kts | 224° |
| 2026-05-04 22:31 | 42.28493 | -71.07172 | 2747 ft | 79 kts | 223° |
| 2026-05-04 22:32 | 42.28068 | -71.07647 | 2707 ft | 84 kts | 224° |
| 2026-05-04 22:32 | 42.27601 | -71.08162 | 2642 ft | 86 kts | 221° |
| 2026-05-04 22:32 | 42.27135 | -71.08648 | 2645 ft | 84 kts | 221° |
| 2026-05-04 22:32 | 42.26694 | -71.09120 | 2664 ft | 79 kts | 220° |
| 2026-05-04 22:33 | 42.26242 | -71.09584 | 2558 ft | 84 kts | 223° |
| 2026-05-04 22:33 | 42.25782 | -71.10067 | 2506 ft | 83 kts | 220° |
| 2026-05-04 22:33 | 42.25263 | -71.10483 | 2341 ft | 91 kts | 213° |
| 2026-05-04 22:33 | 42.24622 | -71.10644 | 2216 ft | 95 kts | 193° |
| 2026-05-04 22:34 | 42.23993 | -71.10667 | 2127 ft | 86 kts | 192° |
| 2026-05-04 22:34 | 42.23400 | -71.10686 | 2015 ft | 85 kts | 191° |
| 2026-05-04 22:34 | 42.22807 | -71.10693 | 1880 ft | 87 kts | 191° |
| 2026-05-04 22:34 | 42.22202 | -71.10693 | 1747 ft | 84 kts | 192° |
| 2026-05-04 22:35 | 42.21636 | -71.10734 | 1636 ft | 77 kts | 194° |
| 2026-05-04 22:35 | 42.21123 | -71.10857 | 1597 ft | 73 kts | 201° |
| 2026-05-04 22:35 | 42.20645 | -71.10985 | 1553 ft | 64 kts | 197° |
| 2026-05-04 22:35 | 42.20201 | -71.11058 | 1447 ft | 70 kts | 195° |
| 2026-05-04 22:36 | 42.19720 | -71.11192 | 1346 ft | 66 kts | 215° |
| 2026-05-04 22:36 | 42.19443 | -71.11728 | 1129 ft | 74 kts | 240° |
| 2026-05-04 22:36 | 42.19306 | -71.12393 | 940 ft | 70 kts | 255° |
| 2026-05-04 22:36 | 42.19287 | -71.13007 | 808 ft | 63 kts | 256° |
| 2026-05-04 22:37 | 42.19306 | -71.13558 | 699 ft | 55 kts | 250° |
| 2026-05-04 22:37 | 42.19265 | -71.14044 | 564 ft | 53 kts | 250° |
| 2026-05-04 22:37 | 42.19241 | -71.14591 | 406 ft | 62 kts | 258° |
| 2026-05-04 22:37 | 42.19301 | -71.15126 | 334 ft | 51 kts | 264° |
| 2026-05-04 22:38 | 42.19278 | -71.15569 | 291 ft | 50 kts | 248° |
| 2026-05-04 22:38 | 42.19260 | -71.16113 | 202 ft | 58 kts | 246° |
| 2026-05-04 22:38 | 42.19240 | -71.16613 | 80 ft | 54 kts | 247° |
| 2026-05-04 22:38 | 42.19228 | -71.17096 | 52 ft | 50 kts | 249° |
| 2026-05-04 22:39 | 42.19206 | -71.17484 | 49 ft | 32 kts | 255° |
| 2026-05-04 22:39 | 42.19211 | -71.17708 | 46 ft | 15 kts | 275° |
| 2026-05-04 22:39 | 42.19176 | -71.17753 | 46 ft | 6 kts | 159° |
| 2026-05-04 22:39 | 42.19149 | -71.17737 | 46 ft | 3 kts | 156° |
| 2026-05-04 22:40 | 42.19126 | -71.17724 | 46 ft | 11 kts | 154° |
| 2026-05-04 22:40 | 42.19006 | -71.17647 | 48 ft | 13 kts | 179° |